sensor_id;sensor_type;location;lat;lon;timestamp;pressure;altitude;pressure_sealevel;temperature;humidity
9905;BME280;4991;43.566;27.820;2022-09-03T00:00:14;98639.91;;;19.78;100.00
9905;BME280;4991;43.566;27.820;2022-09-03T00:02:48;98638.44;;;19.61;100.00
9905;BME280;4991;43.566;27.820;2022-09-03T00:05:23;98650.31;;;19.43;100.00
9905;BME280;4991;43.566;27.820;2022-09-03T00:13:23;98637.06;;;19.13;100.00
9905;BME280;4991;43.566;27.820;2022-09-03T00:15:51;98615.59;;;19.03;100.00
9905;BME280;4991;43.566;27.820;2022-09-03T00:18:21;98615.13;;;19.01;100.00
9905;BME280;4991;43.566;27.820;2022-09-03T00:20:51;98608.44;;;19.02;100.00
9905;BME280;4991;43.566;27.820;2022-09-03T00:23:21;98602.06;;;18.98;100.00
9905;BME280;4991;43.566;27.820;2022-09-03T00:25:57;98604.84;;;18.98;100.00
9905;BME280;4991;43.566;27.820;2022-09-03T00:28:37;98602.00;;;18.95;100.00
9905;BME280;4991;43.566;27.820;2022-09-03T00:31:28;98607.56;;;18.79;100.00
9905;BME280;4991;43.566;27.820;2022-09-03T00:34:10;98598.41;;;18.56;100.00
9905;BME280;4991;43.566;27.820;2022-09-03T00:36:44;98594.16;;;18.43;100.00
9905;BME280;4991;43.566;27.820;2022-09-03T00:39:13;98593.03;;;18.29;100.00
9905;BME280;4991;43.566;27.820;2022-09-03T00:49:59;98620.09;;;17.92;100.00
9905;BME280;4991;43.566;27.820;2022-09-03T00:55:25;98615.03;;;17.78;100.00
9905;BME280;4991;43.566;27.820;2022-09-03T00:58:03;98624.88;;;17.79;100.00
9905;BME280;4991;43.566;27.820;2022-09-03T01:00:34;98629.25;;;17.80;100.00
9905;BME280;4991;43.566;27.820;2022-09-03T01:03:10;98626.75;;;17.75;100.00
9905;BME280;4991;43.566;27.820;2022-09-03T01:16:38;98653.97;;;17.49;100.00
9905;BME280;4991;43.566;27.820;2022-09-03T01:30:07;98657.47;;;17.07;100.00
9905;BME280;4991;43.566;27.820;2022-09-03T01:40:26;98659.03;;;16.80;100.00
9905;BME280;4991;43.566;27.820;2022-09-03T01:43:05;98651.13;;;16.78;100.00
9905;BME280;4991;43.566;27.820;2022-09-03T01:51:27;98645.16;;;16.76;100.00
9905;BME280;4991;43.566;27.820;2022-09-03T01:54:23;98645.75;;;16.70;100.00
9905;BME280;4991;43.566;27.820;2022-09-03T02:00:03;98634.22;;;16.40;100.00
9905;BME280;4991;43.566;27.820;2022-09-03T02:02:29;98635.38;;;16.39;100.00
9905;BME280;4991;43.566;27.820;2022-09-03T02:05:15;98636.63;;;16.42;100.00
9905;BME280;4991;43.566;27.820;2022-09-03T02:10:28;98658.94;;;16.28;100.00
9905;BME280;4991;43.566;27.820;2022-09-03T02:13:09;98670.41;;;16.18;100.00
9905;BME280;4991;43.566;27.820;2022-09-03T02:15:39;98670.66;;;16.13;100.00
9905;BME280;4991;43.566;27.820;2022-09-03T02:18:09;98663.44;;;16.09;100.00
9905;BME280;4991;43.566;27.820;2022-09-03T02:20:38;98662.66;;;16.08;100.00
9905;BME280;4991;43.566;27.820;2022-09-03T02:23:04;98653.00;;;16.02;100.00
9905;BME280;4991;43.566;27.820;2022-09-03T02:25:36;98640.44;;;16.01;100.00
9905;BME280;4991;43.566;27.820;2022-09-03T02:28:04;98645.22;;;16.04;100.00
9905;BME280;4991;43.566;27.820;2022-09-03T02:30:30;98639.84;;;16.08;100.00
9905;BME280;4991;43.566;27.820;2022-09-03T02:32:55;98631.84;;;16.03;100.00
9905;BME280;4991;43.566;27.820;2022-09-03T02:35:22;98636.88;;;16.01;100.00
9905;BME280;4991;43.566;27.820;2022-09-03T02:37:48;98641.22;;;16.02;100.00
9905;BME280;4991;43.566;27.820;2022-09-03T02:40:14;98653.81;;;16.03;100.00
9905;BME280;4991;43.566;27.820;2022-09-03T02:42:40;98655.53;;;16.07;100.00
9905;BME280;4991;43.566;27.820;2022-09-03T02:45:15;98663.06;;;16.10;100.00
9905;BME280;4991;43.566;27.820;2022-09-03T02:47:45;98654.72;;;16.07;100.00
9905;BME280;4991;43.566;27.820;2022-09-03T02:50:14;98650.38;;;16.06;100.00
9905;BME280;4991;43.566;27.820;2022-09-03T02:52:40;98653.94;;;16.06;100.00
9905;BME280;4991;43.566;27.820;2022-09-03T02:55:05;98649.78;;;16.00;100.00
9905;BME280;4991;43.566;27.820;2022-09-03T02:57:31;98639.50;;;15.97;100.00
9905;BME280;4991;43.566;27.820;2022-09-03T02:59:57;98643.06;;;15.98;100.00
9905;BME280;4991;43.566;27.820;2022-09-03T03:02:23;98640.41;;;15.89;100.00
9905;BME280;4991;43.566;27.820;2022-09-03T03:04:48;98645.31;;;15.84;100.00
9905;BME280;4991;43.566;27.820;2022-09-03T03:07:14;98640.50;;;15.81;100.00
9905;BME280;4991;43.566;27.820;2022-09-03T03:09:40;98641.19;;;15.78;100.00
9905;BME280;4991;43.566;27.820;2022-09-03T03:12:05;98635.47;;;15.71;100.00
9905;BME280;4991;43.566;27.820;2022-09-03T03:14:31;98627.91;;;15.68;100.00
9905;BME280;4991;43.566;27.820;2022-09-03T03:16:57;98625.84;;;15.65;100.00
9905;BME280;4991;43.566;27.820;2022-09-03T03:19:22;98629.84;;;15.67;100.00
9905;BME280;4991;43.566;27.820;2022-09-03T03:21:48;98621.63;;;15.67;100.00
9905;BME280;4991;43.566;27.820;2022-09-03T03:24:14;98614.66;;;15.70;100.00
9905;BME280;4991;43.566;27.820;2022-09-03T03:26:39;98621.28;;;15.69;100.00
9905;BME280;4991;43.566;27.820;2022-09-03T03:29:05;98613.84;;;15.69;100.00
9905;BME280;4991;43.566;27.820;2022-09-03T03:31:31;98623.94;;;15.65;100.00
9905;BME280;4991;43.566;27.820;2022-09-03T03:33:59;98616.13;;;15.67;100.00
9905;BME280;4991;43.566;27.820;2022-09-03T03:36:29;98613.25;;;15.64;100.00
9905;BME280;4991;43.566;27.820;2022-09-03T03:38:56;98611.66;;;15.63;100.00
9905;BME280;4991;43.566;27.820;2022-09-03T03:41:26;98604.38;;;15.67;100.00
9905;BME280;4991;43.566;27.820;2022-09-03T03:43:52;98607.88;;;15.67;100.00
9905;BME280;4991;43.566;27.820;2022-09-03T03:46:19;98612.94;;;15.65;100.00
9905;BME280;4991;43.566;27.820;2022-09-03T03:48:47;98616.59;;;15.69;100.00
9905;BME280;4991;43.566;27.820;2022-09-03T03:51:13;98620.84;;;15.67;100.00
9905;BME280;4991;43.566;27.820;2022-09-03T03:53:38;98616.94;;;15.68;100.00
9905;BME280;4991;43.566;27.820;2022-09-03T03:56:10;98602.28;;;15.64;100.00
9905;BME280;4991;43.566;27.820;2022-09-03T03:58:37;98596.13;;;15.67;100.00
9905;BME280;4991;43.566;27.820;2022-09-03T04:01:17;98600.47;;;15.68;100.00
9905;BME280;4991;43.566;27.820;2022-09-03T04:03:43;98609.38;;;15.65;100.00
9905;BME280;4991;43.566;27.820;2022-09-03T04:06:11;98623.47;;;15.63;100.00
9905;BME280;4991;43.566;27.820;2022-09-03T04:08:39;98626.28;;;15.55;100.00
9905;BME280;4991;43.566;27.820;2022-09-03T04:11:07;98633.50;;;15.59;100.00
9905;BME280;4991;43.566;27.820;2022-09-03T04:13:36;98632.72;;;15.59;100.00
9905;BME280;4991;43.566;27.820;2022-09-03T04:16:08;98645.28;;;15.60;100.00
9905;BME280;4991;43.566;27.820;2022-09-03T04:18:35;98648.84;;;15.60;100.00
9905;BME280;4991;43.566;27.820;2022-09-03T04:21:02;98657.53;;;15.62;100.00
9905;BME280;4991;43.566;27.820;2022-09-03T04:23:29;98655.38;;;15.68;100.00
9905;BME280;4991;43.566;27.820;2022-09-03T04:25:55;98661.53;;;15.65;100.00
9905;BME280;4991;43.566;27.820;2022-09-03T04:28:21;98660.16;;;15.59;100.00
9905;BME280;4991;43.566;27.820;2022-09-03T04:30:47;98657.28;;;15.55;100.00
9905;BME280;4991;43.566;27.820;2022-09-03T04:33:12;98669.41;;;15.54;100.00
9905;BME280;4991;43.566;27.820;2022-09-03T04:35:38;98679.25;;;15.55;100.00
9905;BME280;4991;43.566;27.820;2022-09-03T04:38:05;98679.47;;;15.50;100.00
9905;BME280;4991;43.566;27.820;2022-09-03T04:40:32;98683.81;;;15.51;100.00
9905;BME280;4991;43.566;27.820;2022-09-03T04:42:58;98691.78;;;15.44;100.00
9905;BME280;4991;43.566;27.820;2022-09-03T04:45:24;98694.19;;;15.45;100.00
9905;BME280;4991;43.566;27.820;2022-09-03T04:48:03;98699.34;;;15.47;100.00
9905;BME280;4991;43.566;27.820;2022-09-03T04:50:30;98698.22;;;15.48;100.00
9905;BME280;4991;43.566;27.820;2022-09-03T04:53:02;98695.00;;;15.46;100.00
9905;BME280;4991;43.566;27.820;2022-09-03T04:55:35;98700.22;;;15.39;100.00
9905;BME280;4991;43.566;27.820;2022-09-03T04:58:01;98712.19;;;15.34;100.00
9905;BME280;4991;43.566;27.820;2022-09-03T05:00:26;98714.94;;;15.34;100.00
9905;BME280;4991;43.566;27.820;2022-09-03T05:02:52;98720.16;;;15.27;100.00
9905;BME280;4991;43.566;27.820;2022-09-03T05:05:18;98720.97;;;15.28;100.00
9905;BME280;4991;43.566;27.820;2022-09-03T05:07:43;98732.75;;;15.28;100.00
9905;BME280;4991;43.566;27.820;2022-09-03T05:10:11;98725.97;;;15.26;100.00
9905;BME280;4991;43.566;27.820;2022-09-03T05:12:59;98726.44;;;15.28;100.00
9905;BME280;4991;43.566;27.820;2022-09-03T05:15:25;98715.00;;;15.26;100.00
9905;BME280;4991;43.566;27.820;2022-09-03T05:17:55;98718.81;;;15.33;100.00
9905;BME280;4991;43.566;27.820;2022-09-03T05:20:21;98720.41;;;15.34;100.00
9905;BME280;4991;43.566;27.820;2022-09-03T05:22:47;98720.75;;;15.33;100.00
9905;BME280;4991;43.566;27.820;2022-09-03T05:25:13;98719.69;;;15.25;100.00
9905;BME280;4991;43.566;27.820;2022-09-03T05:27:38;98731.00;;;15.24;100.00
9905;BME280;4991;43.566;27.820;2022-09-03T05:30:04;98725.16;;;15.25;100.00
9905;BME280;4991;43.566;27.820;2022-09-03T05:32:31;98717.81;;;15.17;100.00
9905;BME280;4991;43.566;27.820;2022-09-03T05:34:57;98724.72;;;15.23;100.00
9905;BME280;4991;43.566;27.820;2022-09-03T05:37:22;98734.69;;;15.28;100.00
9905;BME280;4991;43.566;27.820;2022-09-03T05:39:48;98723.09;;;15.22;100.00
9905;BME280;4991;43.566;27.820;2022-09-03T05:42:14;98725.50;;;15.24;100.00
9905;BME280;4991;43.566;27.820;2022-09-03T05:44:40;98734.22;;;15.26;100.00
9905;BME280;4991;43.566;27.820;2022-09-03T05:47:05;98730.13;;;15.32;100.00
9905;BME280;4991;43.566;27.820;2022-09-03T05:49:31;98725.50;;;15.24;100.00
9905;BME280;4991;43.566;27.820;2022-09-03T05:51:56;98726.31;;;15.24;100.00
9905;BME280;4991;43.566;27.820;2022-09-03T05:54:22;98730.00;;;15.28;100.00
9905;BME280;4991;43.566;27.820;2022-09-03T05:56:48;98731.00;;;15.24;100.00
9905;BME280;4991;43.566;27.820;2022-09-03T05:59:14;98734.22;;;15.26;100.00
9905;BME280;4991;43.566;27.820;2022-09-03T06:01:44;98735.44;;;15.16;100.00
9905;BME280;4991;43.566;27.820;2022-09-03T06:04:12;98744.00;;;15.15;100.00
9905;BME280;4991;43.566;27.820;2022-09-03T06:06:40;98739.75;;;15.17;100.00
9905;BME280;4991;43.566;27.820;2022-09-03T06:09:11;98744.47;;;15.17;100.00
9905;BME280;4991;43.566;27.820;2022-09-03T06:11:39;98741.72;;;15.17;100.00
9905;BME280;4991;43.566;27.820;2022-09-03T06:14:06;98733.75;;;15.03;100.00
9905;BME280;4991;43.566;27.820;2022-09-03T06:16:36;98750.53;;;15.02;100.00
9905;BME280;4991;43.566;27.820;2022-09-03T06:19:03;98751.41;;;14.94;100.00
9905;BME280;4991;43.566;27.820;2022-09-03T06:21:35;98750.75;;;14.97;100.00
9905;BME280;4991;43.566;27.820;2022-09-03T06:24:01;98749.41;;;15.03;100.00
9905;BME280;4991;43.566;27.820;2022-09-03T06:26:28;98756.22;;;14.97;100.00
9905;BME280;4991;43.566;27.820;2022-09-03T06:28:53;98752.94;;;15.03;100.00
9905;BME280;4991;43.566;27.820;2022-09-03T06:31:21;98751.66;;;15.01;100.00
9905;BME280;4991;43.566;27.820;2022-09-03T06:33:48;98752.19;;;14.94;100.00
9905;BME280;4991;43.566;27.820;2022-09-03T06:36:16;98756.56;;;14.95;100.00
9905;BME280;4991;43.566;27.820;2022-09-03T06:38:43;98756.28;;;15.09;100.00
9905;BME280;4991;43.566;27.820;2022-09-03T06:41:17;98760.97;;;15.08;100.00
9905;BME280;4991;43.566;27.820;2022-09-03T06:43:46;98753.34;;;15.14;100.00
9905;BME280;4991;43.566;27.820;2022-09-03T06:46:15;98765.13;;;15.14;100.00
9905;BME280;4991;43.566;27.820;2022-09-03T06:48:41;98761.13;;;15.12;100.00
9905;BME280;4991;43.566;27.820;2022-09-03T06:51:09;98770.06;;;15.21;100.00
9905;BME280;4991;43.566;27.820;2022-09-03T06:53:37;98766.78;;;15.27;100.00
9905;BME280;4991;43.566;27.820;2022-09-03T06:56:05;98774.81;;;15.32;100.00
9905;BME280;4991;43.566;27.820;2022-09-03T06:58:37;98776.97;;;15.27;100.00
9905;BME280;4991;43.566;27.820;2022-09-03T07:01:08;98783.13;;;15.24;100.00
9905;BME280;4991;43.566;27.820;2022-09-03T07:03:36;98788.75;;;15.27;100.00
9905;BME280;4991;43.566;27.820;2022-09-03T07:06:04;98788.53;;;15.32;100.00
9905;BME280;4991;43.566;27.820;2022-09-03T07:08:30;98800.72;;;15.23;100.00
9905;BME280;4991;43.566;27.820;2022-09-03T07:10:58;98801.94;;;15.13;100.00
9905;BME280;4991;43.566;27.820;2022-09-03T07:13:25;98807.41;;;15.13;100.00
9905;BME280;4991;43.566;27.820;2022-09-03T07:16:12;98793.16;;;15.20;100.00
9905;BME280;4991;43.566;27.820;2022-09-03T07:18:39;98793.97;;;15.20;100.00
9905;BME280;4991;43.566;27.820;2022-09-03T07:21:07;98805.75;;;15.21;100.00
9905;BME280;4991;43.566;27.820;2022-09-03T07:23:34;98812.19;;;15.25;100.00
9905;BME280;4991;43.566;27.820;2022-09-03T07:26:03;98807.28;;;15.30;100.00
9905;BME280;4991;43.566;27.820;2022-09-03T07:28:30;98812.03;;;15.21;100.00
9905;BME280;4991;43.566;27.820;2022-09-03T07:31:10;98810.03;;;15.30;100.00
9905;BME280;4991;43.566;27.820;2022-09-03T07:33:40;98825.75;;;15.21;100.00
9905;BME280;4991;43.566;27.820;2022-09-03T07:36:09;98826.81;;;15.29;100.00
9905;BME280;4991;43.566;27.820;2022-09-03T07:38:35;98836.41;;;15.23;100.00
9905;BME280;4991;43.566;27.820;2022-09-03T07:41:04;98827.69;;;15.21;100.00
9905;BME280;4991;43.566;27.820;2022-09-03T07:43:40;98832.16;;;15.25;100.00
9905;BME280;4991;43.566;27.820;2022-09-03T07:46:07;98835.38;;;15.27;100.00
9905;BME280;4991;43.566;27.820;2022-09-03T07:48:33;98825.63;;;15.18;100.00
9905;BME280;4991;43.566;27.820;2022-09-03T07:50:59;98831.09;;;15.18;100.00
9905;BME280;4991;43.566;27.820;2022-09-03T07:53:28;98841.88;;;15.23;100.00
9905;BME280;4991;43.566;27.820;2022-09-03T07:56:06;98834.47;;;15.23;100.00
9905;BME280;4991;43.566;27.820;2022-09-03T07:58:33;98836.13;;;15.36;100.00
9905;BME280;4991;43.566;27.820;2022-09-03T08:01:06;98835.16;;;15.41;100.00
9905;BME280;4991;43.566;27.820;2022-09-03T08:03:35;98833.06;;;15.38;100.00
9905;BME280;4991;43.566;27.820;2022-09-03T08:06:03;98831.47;;;15.37;100.00
9905;BME280;4991;43.566;27.820;2022-09-03T08:08:29;98831.41;;;15.45;100.00
9905;BME280;4991;43.566;27.820;2022-09-03T08:11:03;98834.75;;;15.51;100.00
9905;BME280;4991;43.566;27.820;2022-09-03T08:13:29;98840.38;;;15.55;100.00
9905;BME280;4991;43.566;27.820;2022-09-03T08:15:55;98846.22;;;15.53;100.00
9905;BME280;4991;43.566;27.820;2022-09-03T08:18:21;98850.34;;;15.38;100.00
9905;BME280;4991;43.566;27.820;2022-09-03T08:20:47;98856.47;;;15.35;100.00
9905;BME280;4991;43.566;27.820;2022-09-03T08:23:13;98850.41;;;15.30;100.00
9905;BME280;4991;43.566;27.820;2022-09-03T08:25:40;98840.34;;;15.34;100.00
9905;BME280;4991;43.566;27.820;2022-09-03T08:28:05;98846.03;;;15.29;100.00
9905;BME280;4991;43.566;27.820;2022-09-03T08:30:31;98838.59;;;15.29;100.00
9905;BME280;4991;43.566;27.820;2022-09-03T08:33:00;98837.66;;;15.25;100.00
9905;BME280;4991;43.566;27.820;2022-09-03T08:35:29;98836.47;;;15.35;100.00
9905;BME280;4991;43.566;27.820;2022-09-03T08:37:57;98849.03;;;15.36;100.00
9905;BME280;4991;43.566;27.820;2022-09-03T08:40:26;98845.13;;;15.45;100.00
9905;BME280;4991;43.566;27.820;2022-09-03T08:43:09;98835.72;;;15.55;100.00
9905;BME280;4991;43.566;27.820;2022-09-03T08:45:41;98854.44;;;15.53;100.00
9905;BME280;4991;43.566;27.820;2022-09-03T08:48:09;98850.75;;;15.49;100.00
9905;BME280;4991;43.566;27.820;2022-09-03T08:50:47;98843.94;;;15.55;100.00
9905;BME280;4991;43.566;27.820;2022-09-03T08:55:50;98847.28;;;15.61;100.00
9905;BME280;4991;43.566;27.820;2022-09-03T08:58:26;98845.53;;;15.56;100.00
9905;BME280;4991;43.566;27.820;2022-09-03T09:09:26;98841.00;;;15.60;100.00
9905;BME280;4991;43.566;27.820;2022-09-03T09:11:53;98840.75;;;15.86;100.00
9905;BME280;4991;43.566;27.820;2022-09-03T09:22:44;98848.03;;;15.70;100.00
9905;BME280;4991;43.566;27.820;2022-09-03T09:25:16;98857.44;;;15.81;100.00
9905;BME280;4991;43.566;27.820;2022-09-03T09:30:20;98856.19;;;15.78;100.00
9905;BME280;4991;43.566;27.820;2022-09-03T09:32:46;98868.09;;;15.82;100.00
9905;BME280;4991;43.566;27.820;2022-09-03T09:35:12;98859.47;;;15.72;100.00
9905;BME280;4991;43.566;27.820;2022-09-03T09:37:48;98868.34;;;15.69;100.00
9905;BME280;4991;43.566;27.820;2022-09-03T09:40:34;98876.50;;;15.65;100.00
9905;BME280;4991;43.566;27.820;2022-09-03T09:43:11;98868.13;;;15.62;100.00
9905;BME280;4991;43.566;27.820;2022-09-03T09:45:39;98884.44;;;15.58;100.00
9905;BME280;4991;43.566;27.820;2022-09-03T09:48:14;98897.69;;;15.56;100.00
9905;BME280;4991;43.566;27.820;2022-09-03T09:50:42;98890.47;;;15.52;100.00
9905;BME280;4991;43.566;27.820;2022-09-03T09:53:10;98894.34;;;15.50;100.00
9905;BME280;4991;43.566;27.820;2022-09-03T09:55:56;98905.25;;;15.59;100.00
9905;BME280;4991;43.566;27.820;2022-09-03T09:58:26;98909.50;;;15.57;100.00
9905;BME280;4991;43.566;27.820;2022-09-03T10:01:20;98912.28;;;15.48;100.00
9905;BME280;4991;43.566;27.820;2022-09-03T10:03:55;98909.22;;;15.49;100.00
9905;BME280;4991;43.566;27.820;2022-09-03T10:06:27;98911.91;;;15.58;100.00
9905;BME280;4991;43.566;27.820;2022-09-03T10:09:14;98915.91;;;15.61;100.00
9905;BME280;4991;43.566;27.820;2022-09-03T10:11:47;98912.75;;;15.71;100.00
9905;BME280;4991;43.566;27.820;2022-09-03T10:14:23;98907.06;;;15.76;100.00
9905;BME280;4991;43.566;27.820;2022-09-03T10:16:59;98908.94;;;15.84;100.00
9905;BME280;4991;43.566;27.820;2022-09-03T10:22:39;98901.31;;;15.89;100.00
9905;BME280;4991;43.566;27.820;2022-09-03T10:25:08;98898.63;;;16.01;100.00
9905;BME280;4991;43.566;27.820;2022-09-03T10:27:35;98902.22;;;16.14;100.00
9905;BME280;4991;43.566;27.820;2022-09-03T10:30:02;98900.34;;;16.26;100.00
9905;BME280;4991;43.566;27.820;2022-09-03T10:32:37;98908.72;;;16.30;100.00
9905;BME280;4991;43.566;27.820;2022-09-03T10:38:47;98910.09;;;16.36;100.00
9905;BME280;4991;43.566;27.820;2022-09-03T10:41:19;98913.38;;;16.50;100.00
9905;BME280;4991;43.566;27.820;2022-09-03T10:44:14;98913.13;;;16.43;100.00
9905;BME280;4991;43.566;27.820;2022-09-03T11:00:10;98924.34;;;16.83;100.00
9905;BME280;4991;43.566;27.820;2022-09-03T11:05:59;98923.06;;;16.80;100.00
9905;BME280;4991;43.566;27.820;2022-09-03T11:08:22;98927.03;;;16.58;100.00
9905;BME280;4991;43.566;27.820;2022-09-03T11:10:53;98927.03;;;16.58;100.00
9905;BME280;4991;43.566;27.820;2022-09-03T11:13:30;98933.94;;;16.44;100.00
9905;BME280;4991;43.566;27.820;2022-09-03T11:16:07;98933.47;;;16.42;100.00
9905;BME280;4991;43.566;27.820;2022-09-03T11:18:40;98933.44;;;16.50;100.00
9905;BME280;4991;43.566;27.820;2022-09-03T11:21:11;98925.63;;;16.97;100.00
9905;BME280;4991;43.566;27.820;2022-09-03T11:23:46;98927.81;;;17.64;100.00
9905;BME280;4991;43.566;27.820;2022-09-03T11:26:18;98926.88;;;17.84;100.00
9905;BME280;4991;43.566;27.820;2022-09-03T11:28:58;98925.69;;;17.97;100.00
9905;BME280;4991;43.566;27.820;2022-09-03T11:31:53;98921.66;;;17.94;100.00
9905;BME280;4991;43.566;27.820;2022-09-03T11:37:05;98930.13;;;17.62;100.00
9905;BME280;4991;43.566;27.820;2022-09-03T11:42:04;98923.31;;;17.11;100.00
9905;BME280;4991;43.566;27.820;2022-09-03T11:44:38;98930.91;;;17.02;100.00
9905;BME280;4991;43.566;27.820;2022-09-03T11:47:42;98930.41;;;16.88;100.00
9905;BME280;4991;43.566;27.820;2022-09-03T11:52:52;98935.25;;;16.91;100.00
9905;BME280;4991;43.566;27.820;2022-09-03T11:55:30;98951.38;;;16.81;100.00
9905;BME280;4991;43.566;27.820;2022-09-03T11:57:57;98945.16;;;16.71;100.00
9905;BME280;4991;43.566;27.820;2022-09-03T12:00:23;98948.69;;;16.60;100.00
9905;BME280;4991;43.566;27.820;2022-09-03T12:02:54;98944.69;;;16.57;100.00
9905;BME280;4991;43.566;27.820;2022-09-03T12:05:36;98949.78;;;16.47;100.00
9905;BME280;4991;43.566;27.820;2022-09-03T12:17:15;98962.97;;;16.53;100.00
9905;BME280;4991;43.566;27.820;2022-09-03T12:19:57;98971.97;;;16.62;100.00
9905;BME280;4991;43.566;27.820;2022-09-03T12:22:26;98973.00;;;16.58;100.00
9905;BME280;4991;43.566;27.820;2022-09-03T12:24:53;98962.41;;;16.48;100.00
9905;BME280;4991;43.566;27.820;2022-09-03T12:27:24;98974.78;;;16.54;100.00
9905;BME280;4991;43.566;27.820;2022-09-03T12:30:02;98971.41;;;16.69;100.00
9905;BME280;4991;43.566;27.820;2022-09-03T12:32:34;98968.09;;;16.75;100.00
9905;BME280;4991;43.566;27.820;2022-09-03T12:35:18;98973.34;;;16.68;100.00
9905;BME280;4991;43.566;27.820;2022-09-03T12:37:44;98968.75;;;16.60;100.00
9905;BME280;4991;43.566;27.820;2022-09-03T12:40:22;98975.00;;;16.49;100.00
9905;BME280;4991;43.566;27.820;2022-09-03T12:42:48;98970.25;;;16.58;100.00
9905;BME280;4991;43.566;27.820;2022-09-03T12:45:21;98968.22;;;16.79;100.00
9905;BME280;4991;43.566;27.820;2022-09-03T12:47:47;98975.41;;;16.71;100.00
9905;BME280;4991;43.566;27.820;2022-09-03T12:50:14;98975.75;;;16.70;100.00
9905;BME280;4991;43.566;27.820;2022-09-03T12:53:01;98984.22;;;16.65;100.00
9905;BME280;4991;43.566;27.820;2022-09-03T12:55:36;98981.09;;;16.54;100.00
9905;BME280;4991;43.566;27.820;2022-09-03T12:58:11;98983.84;;;16.54;100.00
9905;BME280;4991;43.566;27.820;2022-09-03T13:00:49;98988.78;;;16.40;100.00
9905;BME280;4991;43.566;27.820;2022-09-03T13:03:18;98979.28;;;16.38;100.00
9905;BME280;4991;43.566;27.820;2022-09-03T13:05:50;98990.34;;;16.29;100.00
9905;BME280;4991;43.566;27.820;2022-09-03T13:08:22;98991.47;;;16.28;100.00
9905;BME280;4991;43.566;27.820;2022-09-03T13:10:55;98993.09;;;16.29;100.00
9905;BME280;4991;43.566;27.820;2022-09-03T13:13:25;98988.72;;;16.28;100.00
9905;BME280;4991;43.566;27.820;2022-09-03T13:19:12;98982.19;;;16.41;100.00
9905;BME280;4991;43.566;27.820;2022-09-03T13:22:01;98994.84;;;16.34;100.00
9905;BME280;4991;43.566;27.820;2022-09-03T13:27:24;99000.94;;;16.19;100.00
9905;BME280;4991;43.566;27.820;2022-09-03T13:30:12;99011.06;;;16.27;100.00
9905;BME280;4991;43.566;27.820;2022-09-03T13:41:02;99001.81;;;16.31;100.00
9905;BME280;4991;43.566;27.820;2022-09-03T13:43:46;99008.84;;;16.20;100.00
9905;BME280;4991;43.566;27.820;2022-09-03T13:52:09;99011.50;;;15.88;100.00
9905;BME280;4991;43.566;27.820;2022-09-03T13:54:48;99014.59;;;15.86;100.00
9905;BME280;4991;43.566;27.820;2022-09-03T13:57:36;99013.84;;;15.77;100.00
9905;BME280;4991;43.566;27.820;2022-09-03T14:00:12;99007.41;;;15.73;100.00
9905;BME280;4991;43.566;27.820;2022-09-03T14:02:57;99010.34;;;15.68;100.00
9905;BME280;4991;43.566;27.820;2022-09-03T14:15:50;99010.09;;;15.82;100.00
9905;BME280;4991;43.566;27.820;2022-09-03T14:18:40;99012.56;;;15.75;100.00
9905;BME280;4991;43.566;27.820;2022-09-03T14:24:06;99024.66;;;15.74;100.00
9905;BME280;4991;43.566;27.820;2022-09-03T14:26:36;99012.63;;;15.66;100.00
9905;BME280;4991;43.566;27.820;2022-09-03T14:29:07;99024.75;;;15.65;100.00
9905;BME280;4991;43.566;27.820;2022-09-03T14:32:30;99027.00;;;15.63;100.00
9905;BME280;4991;43.566;27.820;2022-09-03T14:40:47;99037.66;;;15.65;100.00
9905;BME280;4991;43.566;27.820;2022-09-03T14:49:16;99053.34;;;15.56;100.00
9905;BME280;4991;43.566;27.820;2022-09-03T14:54:45;99047.53;;;15.57;100.00
9905;BME280;4991;43.566;27.820;2022-09-03T15:07:54;99064.50;;;15.50;100.00
9905;BME280;4991;43.566;27.820;2022-09-03T15:10:41;99049.53;;;15.48;100.00
9905;BME280;4991;43.566;27.820;2022-09-03T15:13:16;99044.84;;;15.48;100.00
9905;BME280;4991;43.566;27.820;2022-09-03T15:18:29;99059.69;;;15.47;100.00
9905;BME280;4991;43.566;27.820;2022-09-03T15:21:13;99061.16;;;15.45;100.00
9905;BME280;4991;43.566;27.820;2022-09-03T15:27:02;99066.31;;;15.38;100.00
9905;BME280;4991;43.566;27.820;2022-09-03T15:29:57;99065.19;;;15.47;100.00
9905;BME280;4991;43.566;27.820;2022-09-03T15:35:44;99056.78;;;15.44;100.00
9905;BME280;4991;43.566;27.820;2022-09-03T15:38:23;99058.09;;;15.46;100.00
9905;BME280;4991;43.566;27.820;2022-09-03T15:40:54;99067.63;;;15.40;100.00
9905;BME280;4991;43.566;27.820;2022-09-03T15:43:25;99066.97;;;15.35;100.00
9905;BME280;4991;43.566;27.820;2022-09-03T15:45:55;99068.91;;;15.34;100.00
9905;BME280;4991;43.566;27.820;2022-09-03T15:54:16;99080.22;;;15.33;100.00
9905;BME280;4991;43.566;27.820;2022-09-03T16:02:52;99087.31;;;15.25;100.00
9905;BME280;4991;43.566;27.820;2022-09-03T16:05:25;99088.66;;;15.19;100.00
9905;BME280;4991;43.566;27.820;2022-09-03T16:27:23;99121.56;;;15.28;100.00
9905;BME280;4991;43.566;27.820;2022-09-03T16:30:07;99106.06;;;15.23;100.00
9905;BME280;4991;43.566;27.820;2022-09-03T16:35:15;99112.53;;;15.19;100.00
9905;BME280;4991;43.566;27.820;2022-09-03T16:43:04;99118.88;;;14.85;100.00
9905;BME280;4991;43.566;27.820;2022-09-03T16:45:59;99118.56;;;14.78;100.00
9905;BME280;4991;43.566;27.820;2022-09-03T16:59:57;99138.72;;;14.65;100.00
9905;BME280;4991;43.566;27.820;2022-09-03T17:08:28;99158.38;;;14.59;100.00
9905;BME280;4991;43.566;27.820;2022-09-03T17:11:07;99162.56;;;14.56;100.00
9905;BME280;4991;43.566;27.820;2022-09-03T17:25:36;99172.72;;;14.47;100.00
9905;BME280;4991;43.566;27.820;2022-09-03T17:42:25;99198.31;;;14.43;100.00
9905;BME280;4991;43.566;27.820;2022-09-03T17:50:25;99226.06;;;14.50;100.00
9905;BME280;4991;43.566;27.820;2022-09-03T17:53:09;99223.63;;;14.40;100.00
9905;BME280;4991;43.566;27.820;2022-09-03T17:55:41;99217.84;;;14.50;100.00
9905;BME280;4991;43.566;27.820;2022-09-03T17:58:20;99216.41;;;14.52;100.00